Time;durP1;ratioP1;P1;durP2;ratioP2;P2;SDS_P1;SDS_P2;PMS_P1;PMS_P2;Temp;Humidity;BMP_temperature;BMP_pressure;BME280_temperature;BME280_humidity;BME280_pressure;Samples;Min_cycle;Max_cycle;Signal;HPM_P1;HPM_P2
2023/04/30 00:02:22;;;;;;;2.33;1.92;;;;;;;12.57;100.00;96480.25;5037619;28;20572;-71
2023/04/30 00:04:48;;;;;;;2.65;0.73;;;;;;;12.52;100.00;96472.88;5036668;28;20247;-71
2023/04/30 00:07:16;;;;;;;3.25;1.65;;;;;;;12.56;100.00;96470.69;5036582;28;20205;-71
2023/04/30 00:09:43;;;;;;;1.85;1.05;;;;;;;12.60;100.00;96472.78;5036448;28;20208;-71
2023/04/30 00:12:09;;;;;;;2.17;1.58;;;;;;;12.61;100.00;96477.06;5037619;28;20205;-71
2023/04/30 00:14:36;;;;;;;2.15;1.05;;;;;;;12.52;100.00;96483.44;5036198;28;20221;-71
2023/04/30 00:17:02;;;;;;;1.65;1.08;;;;;;;12.42;100.00;96480.28;5037641;28;20240;-71
2023/04/30 00:19:29;;;;;;;2.30;1.03;;;;;;;12.41;100.00;96477.78;5036272;28;20271;-71
2023/04/30 00:21:55;;;;;;;1.50;1.10;;;;;;;12.38;100.00;96476.34;5036835;28;20205;-71
2023/04/30 00:24:23;;;;;;;1.43;1.10;;;;;;;12.48;100.00;96479.53;5036693;28;20217;-71
2023/04/30 00:26:50;;;;;;;2.53;1.53;;;;;;;12.37;100.00;96482.66;5036954;28;20578;-71
2023/04/30 00:29:16;;;;;;;2.40;1.15;;;;;;;12.46;100.00;96481.56;5036753;28;20579;-71
2023/04/30 00:31:43;;;;;;;2.17;1.20;;;;;;;12.39;100.00;96488.56;5035811;28;20209;-71
2023/04/30 00:34:09;;;;;;;1.57;1.17;;;;;;;12.42;100.00;96480.28;5036690;28;20222;-71
2023/04/30 00:36:35;;;;;;;1.27;1.00;;;;;;;12.49;100.00;96481.19;5036253;28;20692;-71
2023/04/30 00:39:02;;;;;;;1.40;1.10;;;;;;;12.51;100.00;96483.63;5036254;28;20236;-71
2023/04/30 00:41:31;;;;;;;1.88;1.15;;;;;;;12.69;100.00;96482.28;5036507;28;20201;-71
2023/04/30 00:43:57;;;;;;;2.27;1.17;;;;;;;12.61;100.00;96479.69;5036328;28;20265;-71
2023/04/30 00:46:24;;;;;;;1.90;1.25;;;;;;;12.72;100.00;96487.19;5036901;28;20208;-71
2023/04/30 00:48:51;;;;;;;3.73;1.17;;;;;;;12.70;100.00;96488.38;5036087;28;20616;-71
2023/04/30 00:51:18;;;;;;;3.83;1.07;;;;;;;12.70;100.00;96489.19;5036195;28;20209;-71
2023/04/30 00:53:44;;;;;;;2.60;1.90;;;;;;;12.67;100.00;96486.09;5036434;28;20212;-69
2023/04/30 00:56:13;;;;;;;1.63;1.10;;;;;;;12.64;100.00;96504.94;5035840;28;20224;-70
2023/04/30 00:58:41;;;;;;;2.20;1.57;;;;;;;12.74;100.00;96500.22;5036120;28;20841;-70
2023/04/30 01:01:08;;;;;;;3.30;1.65;;;;;;;12.66;100.00;96506.41;5035493;28;20228;-70
2023/04/30 01:03:35;;;;;;;1.30;1.20;;;;;;;12.72;100.00;96497.75;5036600;28;20262;-69
2023/04/30 01:06:02;;;;;;;2.92;1.52;;;;;;;12.72;100.00;96507.53;5035223;28;20283;-70
2023/04/30 01:08:29;;;;;;;1.43;1.20;;;;;;;12.72;100.00;96496.94;5035950;28;20290;-70
2023/04/30 01:11:07;;;;;;;1.77;1.40;;;;;;;12.77;100.00;96495.38;5035658;28;20209;-70
2023/04/30 01:13:40;;;;;;;1.57;1.30;;;;;;;12.77;100.00;96501.47;5035900;28;20197;-70
2023/04/30 01:16:17;;;;;;;4.38;1.75;;;;;;;12.72;100.00;96496.94;5035230;28;20225;-70
2023/04/30 01:18:48;;;;;;;1.33;1.10;;;;;;;12.64;100.00;96500.50;5034404;28;20224;-70
2023/04/30 01:21:18;;;;;;;3.97;1.65;;;;;;;12.55;100.00;96501.59;5035703;28;20208;-70
2023/04/30 01:24:00;;;;;;;1.52;1.35;;;;;;;12.66;100.00;96497.66;5035075;28;20644;-70
2023/04/30 01:26:45;;;;;;;2.00;1.30;;;;;;;12.60;100.00;96491.31;5035429;28;20216;-70
2023/04/30 01:29:16;;;;;;;3.13;1.93;;;;;;;12.52;100.00;96490.56;5035491;28;20241;-70
2023/04/30 01:31:43;;;;;;;2.50;1.20;;;;;;;12.17;100.00;96481.53;5034742;28;20205;-70
2023/04/30 01:34:10;;;;;;;1.47;1.37;;;;;;;12.05;100.00;96478.69;5035660;28;20232;-70
2023/04/30 01:36:47;;;;;;;1.77;1.10;;;;;;;12.20;100.00;96489.06;5035554;28;20205;-70
2023/04/30 01:39:36;;;;;;;5.40;1.10;;;;;;;12.10;100.00;96492.19;5035095;28;20231;-69
2023/04/30 01:42:10;;;;;;;2.30;1.30;;;;;;;12.11;100.00;96491.19;5035056;28;20205;-70
2023/04/30 01:44:54;;;;;;;2.50;1.27;;;;;;;11.98;100.00;96490.97;5035644;28;20736;-70
2023/04/30 01:47:30;;;;;;;2.97;1.67;;;;;;;11.99;100.00;96490.81;5034346;28;20284;-69
2023/04/30 01:50:10;;;;;;;3.30;1.58;;;;;;;12.04;100.00;96495.53;5035211;28;20670;-69
2023/04/30 01:52:40;;;;;;;2.43;1.30;;;;;;;11.91;100.00;96495.31;5034388;28;20204;-70
2023/04/30 01:55:12;;;;;;;3.03;1.87;;;;;;;12.01;100.00;96498.53;5034898;28;20284;-70
2023/04/30 01:57:42;;;;;;;2.27;1.23;;;;;;;12.00;100.00;96494.25;5033990;28;20205;-69
2023/04/30 02:00:11;;;;;;;4.37;1.60;;;;;;;11.90;100.00;96494.50;5035626;28;20709;-70
2023/04/30 02:02:38;;;;;;;2.10;1.63;;;;;;;11.87;100.00;96494.03;5034283;28;20211;-70
2023/04/30 02:05:05;;;;;;;2.80;1.37;;;;;;;11.71;100.00;96496.81;5035241;28;20229;-70
2023/04/30 02:07:43;;;;;;;4.57;2.30;;;;;;;11.83;100.00;96492.75;5034507;28;20223;-69
2023/04/30 02:10:11;;;;;;;2.97;1.50;;;;;;;11.70;100.00;96500.47;5035129;28;20201;-70
2023/04/30 02:12:38;;;;;;;3.00;1.80;;;;;;;11.83;100.00;96505.97;5034591;28;20205;-70
2023/04/30 02:15:06;;;;;;;2.17;1.30;;;;;;;11.89;100.00;96507.88;5035177;28;20228;-69
2023/04/30 02:17:34;;;;;;;1.57;1.20;;;;;;;11.91;100.00;96506.69;5034319;28;20197;-69
2023/04/30 02:20:00;;;;;;;3.37;1.60;;;;;;;11.89;100.00;96507.88;5034324;28;20244;-69
2023/04/30 02:22:27;;;;;;;1.97;1.27;;;;;;;11.97;100.00;96510.47;5035373;28;20208;-70
2023/04/30 02:24:54;;;;;;;1.97;1.20;;;;;;;11.89;100.00;96507.88;5034911;28;20221;-70
2023/04/30 02:27:21;;;;;;;2.13;1.57;;;;;;;11.98;100.00;96506.81;5034171;28;20685;-70
2023/04/30 02:29:48;;;;;;;3.20;1.67;;;;;;;12.07;100.00;96511.03;5035684;28;20890;-70
2023/04/30 02:32:14;;;;;;;3.50;2.37;;;;;;;12.07;100.00;96505.75;5039478;28;20197;-69
2023/04/30 02:34:43;;;;;;;6.93;2.43;;;;;;;12.12;100.00;96513.94;5035493;28;20229;-69
2023/04/30 02:37:09;;;;;;;3.57;1.80;;;;;;;12.09;100.00;96509.03;5039131;28;20240;-69
2023/04/30 02:39:36;;;;;;;1.93;1.43;;;;;;;11.98;100.00;96506.81;5037976;28;20225;-69
2023/04/30 02:42:03;;;;;;;2.77;1.30;;;;;;;12.02;100.00;96495.72;5038979;28;20209;-69
2023/04/30 02:44:29;;;;;;;3.50;2.03;;;;;;;12.02;100.00;96498.34;5038811;28;20221;-69
2023/04/30 02:46:56;;;;;;;4.17;1.90;;;;;;;11.95;100.00;96494.81;5039331;28;20205;-69
2023/04/30 02:49:22;;;;;;;1.93;1.10;;;;;;;11.72;100.00;96487.91;5038129;28;20216;-69
2023/04/30 02:51:50;;;;;;;4.47;2.10;;;;;;;11.65;100.00;96484.34;5038614;28;20893;-69
2023/04/30 02:54:17;;;;;;;5.60;2.23;;;;;;;11.54;100.00;96479.47;5038447;28;20235;-69
2023/04/30 02:56:43;;;;;;;5.20;2.10;;;;;;;11.58;100.00;96480.75;5038427;28;20208;-69
2023/04/30 02:59:10;;;;;;;3.90;1.67;;;;;;;11.49;100.00;96476.50;5037533;28;20218;-69
2023/04/30 03:01:36;;;;;;;2.33;1.50;;;;;;;11.56;100.00;96480.13;5039536;28;20205;-69
2023/04/30 03:04:03;;;;;;;3.60;1.77;;;;;;;11.34;100.00;96477.44;5037295;28;20216;-69
2023/04/30 03:06:30;;;;;;;2.80;1.30;;;;;;;11.41;100.00;96492.41;5037832;28;21056;-69
2023/04/30 03:08:58;;;;;;;2.20;1.27;;;;;;;11.46;100.00;96479.50;5037952;28;20201;-69
2023/04/30 03:11:24;;;;;;;4.03;1.63;;;;;;;11.38;100.00;96494.56;5038922;28;20213;-68
2023/04/30 03:13:51;;;;;;;1.50;1.40;;;;;;;11.30;100.00;96484.06;5037402;28;20207;-68
2023/04/30 03:16:18;;;;;;;3.87;2.10;;;;;;;11.28;100.00;96481.59;5037625;28;20262;-68
2023/04/30 03:18:45;;;;;;;2.33;1.67;;;;;;;11.20;100.00;96486.09;5038387;28;20236;-68
2023/04/30 03:21:12;;;;;;;4.60;2.03;;;;;;;11.32;100.00;96482.91;5037384;28;20201;-68
2023/04/30 03:23:38;;;;;;;2.77;2.07;;;;;;;11.35;100.00;96485.16;5037618;28;20700;-68
2023/04/30 03:26:07;;;;;;;10.27;2.50;;;;;;;11.29;100.00;96483.25;5037892;28;20225;-68
2023/04/30 03:28:33;;;;;;;3.83;1.90;;;;;;;11.18;100.00;96491.56;5038140;28;20291;-68
2023/04/30 03:31:03;;;;;;;4.37;2.37;;;;;;;11.09;100.00;96479.41;5037141;28;20212;-68
2023/04/30 03:33:30;;;;;;;2.97;1.97;;;;;;;11.07;100.00;96483.22;5038102;28;20262;-68
2023/04/30 03:35:56;;;;;;;4.33;2.20;;;;;;;11.02;100.00;96477.66;5037131;28;20240;-68
2023/04/30 03:38:23;;;;;;;3.77;2.13;;;;;;;11.02;100.00;96477.66;5037904;28;20201;-68
2023/04/30 03:40:49;;;;;;;2.80;2.30;;;;;;;10.99;100.00;96472.72;5037305;28;20205;-70
2023/04/30 03:43:17;;;;;;;4.57;2.30;;;;;;;11.00;100.00;96477.81;5038015;28;20201;-69
2023/04/30 03:45:44;;;;;;;3.60;2.30;;;;;;;10.89;100.00;96480.03;5037333;28;20228;-68
2023/04/30 03:48:10;;;;;;;3.23;2.00;;;;;;;10.91;100.00;96474.59;5037558;28;20223;-69
2023/04/30 03:50:36;;;;;;;5.10;2.37;;;;;;;10.90;100.00;96491.41;5037571;28;20201;-68
2023/04/30 03:53:03;;;;;;;3.37;2.03;;;;;;;10.83;100.00;96475.44;5037658;28;20209;-68
2023/04/30 03:55:29;;;;;;;2.90;1.53;;;;;;;10.75;100.00;96479.94;5036759;28;20224;-68
2023/04/30 03:57:56;;;;;;;3.43;1.90;;;;;;;10.80;100.00;96481.06;5037127;28;20201;-69
2023/04/30 04:00:24;;;;;;;2.67;1.87;;;;;;;11.05;100.00;96483.41;5037180;28;20251;-68
2023/04/30 04:02:50;;;;;;;2.90;1.70;;;;;;;10.78;100.00;96477.81;5037206;28;20267;-69
2023/04/30 04:05:17;;;;;;;5.53;2.00;;;;;;;10.94;100.00;96473.22;5037905;28;20217;-68
2023/04/30 04:07:43;;;;;;;2.90;2.00;;;;;;;11.02;100.00;96478.50;5036673;28;20212;-69
2023/04/30 04:10:10;;;;;;;6.17;1.87;;;;;;;10.86;100.00;96490.09;5037496;28;20194;-69
2023/04/30 04:12:37;;;;;;;4.73;2.73;;;;;;;10.83;100.00;96485.97;5036611;28;20201;-68
2023/04/30 04:15:04;;;;;;;3.57;1.53;;;;;;;10.88;100.00;96481.03;5036952;28;20229;-69
2023/04/30 04:17:31;;;;;;;4.20;2.40;;;;;;;11.00;100.00;96485.72;5035896;28;20280;-68
2023/04/30 04:19:58;;;;;;;6.03;2.17;;;;;;;10.91;100.00;96485.13;5038309;28;20233;-68
2023/04/30 04:22:25;;;;;;;3.63;2.07;;;;;;;10.93;100.00;96487.44;5036859;28;20284;-68
2023/04/30 04:24:51;;;;;;;6.37;1.87;;;;;;;11.10;100.00;96478.44;5036488;28;20224;-68
2023/04/30 04:27:18;;;;;;;1.90;1.33;;;;;;;11.04;100.00;96484.38;5036339;28;20673;-69
2023/04/30 04:29:45;;;;;;;4.53;2.00;;;;;;;11.02;100.00;96489.03;5036449;28;20205;-68
2023/04/30 04:32:11;;;;;;;4.57;2.90;;;;;;;11.20;100.00;96484.31;5036332;28;20226;-69
2023/04/30 04:34:39;;;;;;;2.80;1.87;;;;;;;11.23;100.00;96481.31;5037066;28;20224;-69
2023/04/30 04:37:05;;;;;;;3.70;1.97;;;;;;;11.28;100.00;96492.16;5036181;28;21133;-68
2023/04/30 04:39:32;;;;;;;3.90;2.47;;;;;;;11.38;100.00;96497.19;5036085;28;20221;-68
2023/04/30 04:41:58;;;;;;;5.50;1.80;;;;;;;11.13;100.00;96501.00;5035918;28;20205;-68
2023/04/30 04:44:26;;;;;;;3.67;2.37;;;;;;;11.20;100.00;96502.78;5036340;28;20224;-68
2023/04/30 04:46:52;;;;;;;6.20;2.17;;;;;;;11.15;100.00;96502.47;5036371;28;20205;-69
2023/04/30 04:49:19;;;;;;;3.07;1.53;;;;;;;11.13;100.00;96504.44;5035871;28;20669;-68
2023/04/30 04:51:47;;;;;;;8.40;2.53;;;;;;;11.25;100.00;96505.72;5036222;28;20201;-69
2023/04/30 04:54:13;;;;;;;2.53;1.63;;;;;;;11.36;100.00;96500.00;5035106;28;20244;-69
2023/04/30 04:56:40;;;;;;;3.90;1.90;;;;;;;11.36;100.00;96505.28;5036357;28;20205;-69
2023/04/30 04:59:07;;;;;;;6.57;2.17;;;;;;;11.34;100.00;96503.81;5035353;28;20287;-69
2023/04/30 05:01:33;;;;;;;6.13;2.63;;;;;;;11.38;100.00;96505.13;5036410;28;20205;-69
2023/04/30 05:03:59;;;;;;;3.93;2.00;;;;;;;11.42;100.00;96504.59;5035586;28;20205;-69
2023/04/30 05:06:27;;;;;;;4.60;2.47;;;;;;;11.45;100.00;96503.44;5037121;28;20201;-69
2023/04/30 05:08:55;;;;;;;4.70;2.60;;;;;;;11.27;100.00;96506.34;5034887;28;20776;-69
2023/04/30 05:11:21;;;;;;;9.03;2.40;;;;;;;11.39;100.00;96499.69;5036383;28;20250;-69
2023/04/30 05:13:51;;;;;;;4.17;2.30;;;;;;;11.37;100.00;96512.22;5035372;28;20206;-69
2023/04/30 05:16:17;;;;;;;5.17;2.07;;;;;;;11.45;100.00;96511.34;5036460;28;21116;-69
2023/04/30 05:18:44;;;;;;;2.40;1.60;;;;;;;11.44;100.00;96501.78;5034851;28;21265;-69
2023/04/30 05:21:10;;;;;;;3.53;1.90;;;;;;;11.50;100.00;96506.41;5035317;28;20728;-69
2023/04/30 05:23:37;;;;;;;2.83;1.67;;;;;;;11.56;100.00;96519.72;5035138;28;20212;-68
2023/04/30 05:26:05;;;;;;;3.37;2.10;;;;;;;11.48;100.00;96514.47;5035667;28;20255;-69
2023/04/30 05:28:32;;;;;;;7.60;2.77;;;;;;;11.40;100.00;96514.50;5035475;28;20201;-69
2023/04/30 05:30:58;;;;;;;3.80;1.90;;;;;;;11.47;100.00;96506.69;5035170;28;20217;-69
2023/04/30 05:33:24;;;;;;;5.07;2.07;;;;;;;11.51;100.00;96508.84;5036069;28;20201;-69
2023/04/30 05:35:51;;;;;;;4.77;2.43;;;;;;;11.49;100.00;96516.09;5035789;28;20241;-69
2023/04/30 05:38:17;;;;;;;5.17;3.20;;;;;;;11.56;100.00;96512.59;5035810;28;20205;-69
2023/04/30 05:40:44;;;;;;;4.70;2.63;;;;;;;11.63;100.00;96508.28;5034930;28;20244;-69
2023/04/30 05:43:12;;;;;;;4.27;2.03;;;;;;;11.75;100.00;96512.13;5035491;28;20206;-69
2023/04/30 05:45:38;;;;;;;3.60;2.30;;;;;;;11.63;100.00;96512.72;5035476;28;20235;-69
2023/04/30 05:48:05;;;;;;;3.67;1.80;;;;;;;11.65;100.00;96508.09;5035843;28;20201;-69
2023/04/30 05:50:31;;;;;;;3.00;2.10;;;;;;;11.83;100.00;96508.59;5035148;28;20201;-68
2023/04/30 05:52:58;;;;;;;3.67;2.33;;;;;;;11.74;100.00;96501.75;5034994;28;20209;-69
2023/04/30 05:55:24;;;;;;;4.33;2.47;;;;;;;11.77;100.00;96504.88;5035937;28;20236;-69
2023/04/30 05:57:50;;;;;;;4.93;2.70;;;;;;;11.67;100.00;96512.19;5035056;28;20216;-69
2023/04/30 06:00:19;;;;;;;3.07;2.63;;;;;;;11.60;100.00;96505.16;5035300;28;20221;-69
2023/04/30 06:02:45;;;;;;;2.57;2.20;;;;;;;11.75;100.00;96511.31;5036190;28;20212;-69
2023/04/30 06:05:12;;;;;;;4.13;2.43;;;;;;;11.78;100.00;96511.75;5034378;28;20251;-69
2023/04/30 06:07:38;;;;;;;7.37;2.80;;;;;;;11.85;100.00;96511.88;5034638;28;20327;-69
2023/04/30 06:10:06;;;;;;;6.77;2.10;;;;;;;12.07;100.00;96511.03;5035266;28;20212;-69
2023/04/30 06:12:32;;;;;;;4.63;3.03;;;;;;;12.10;100.00;96510.66;5036000;28;20203;-69
2023/04/30 06:14:59;;;;;;;7.80;3.97;;;;;;;12.06;100.00;96512.03;5034776;28;20229;-69
2023/04/30 06:17:27;;;;;;;6.53;2.80;;;;;;;12.23;100.00;96512.53;5034886;28;20204;-69
2023/04/30 06:19:53;;;;;;;3.67;1.40;;;;;;;12.05;100.00;96513.03;5035074;28;20224;-69
2023/04/30 06:22:20;;;;;;;8.20;4.43;;;;;;;12.04;100.00;96519.28;5035117;28;20201;-69
2023/04/30 06:24:46;;;;;;;5.10;2.80;;;;;;;12.06;100.00;96512.84;5035253;28;20229;-69
2023/04/30 06:27:13;;;;;;;4.27;3.00;;;;;;;12.29;99.96;96511.78;5034301;28;20205;-69
2023/04/30 06:29:39;;;;;;;3.93;2.57;;;;;;;12.38;97.90;96517.81;5035193;28;20212;-69
2023/04/30 06:32:06;;;;;;;3.73;2.27;;;;;;;12.31;97.05;96512.44;5033847;28;20205;-69
2023/04/30 06:34:34;;;;;;;4.47;2.20;;;;;;;12.35;98.66;96516.34;5035526;28;20224;-69
2023/04/30 06:37:00;;;;;;;5.83;2.23;;;;;;;12.25;98.32;96515.78;5033930;28;20209;-69
2023/04/30 06:39:27;;;;;;;5.07;2.87;;;;;;;12.41;96.48;96520.91;5034835;28;20209;-72
2023/04/30 06:41:53;;;;;;;3.77;2.50;;;;;;;12.39;98.24;96514.97;5034523;28;20220;-70
2023/04/30 06:44:20;;;;;;;5.00;2.70;;;;;;;12.40;98.60;96515.81;5035942;28;20225;-69
2023/04/30 06:46:46;;;;;;;5.33;2.77;;;;;;;12.57;96.75;96510.16;5034201;28;20248;-71
2023/04/30 06:49:13;;;;;;;5.57;3.27;;;;;;;12.46;95.75;96518.56;5034760;28;20578;-69
2023/04/30 06:51:41;;;;;;;5.27;2.67;;;;;;;12.59;96.82;96513.44;5034423;28;20205;-69
2023/04/30 06:54:08;;;;;;;3.83;2.40;;;;;;;12.58;96.46;96514.44;5034864;28;20850;-69
2023/04/30 06:56:35;;;;;;;6.73;2.90;;;;;;;12.60;95.61;96525.66;5033922;28;20402;-71
2023/04/30 06:59:01;;;;;;;6.27;3.30;;;;;;;12.74;95.00;96519.56;5035065;28;20216;-72
2023/04/30 07:01:27;;;;;;;4.87;2.73;;;;;;;12.83;95.40;96515.81;5034684;28;20221;-69
2023/04/30 07:03:54;;;;;;;4.97;2.40;;;;;;;12.84;97.01;96506.84;5034791;28;20212;-69
2023/04/30 07:06:20;;;;;;;3.97;2.23;;;;;;;13.00;95.08;96518.09;5035355;28;20205;-72
2023/04/30 07:08:48;;;;;;;3.43;2.77;;;;;;;13.30;94.37;96510.91;5034057;28;20214;-68
2023/04/30 07:11:15;;;;;;;4.17;2.67;;;;;;;13.29;94.55;96506.63;5034478;28;20205;-69
2023/04/30 07:13:42;;;;;;;4.22;2.67;;;;;;;13.44;96.74;96503.75;5034405;28;20614;-68
2023/04/30 07:16:09;;;;;;;5.77;2.97;;;;;;;13.74;95.32;96501.81;5034870;28;20271;-69
2023/04/30 07:18:36;;;;;;;4.38;2.60;;;;;;;13.70;88.56;96509.28;5037396;28;20209;-69
2023/04/30 07:21:03;;;;;;;9.30;3.77;;;;;;;13.78;92.36;96508.34;5037301;28;20225;-72
2023/04/30 07:23:29;;;;;;;7.27;2.70;;;;;;;13.71;90.63;96502.16;5038318;28;20209;-69
2023/04/30 07:25:57;;;;;;;5.07;2.35;;;;;;;13.87;91.81;96508.03;5038572;28;20229;-69
2023/04/30 07:28:23;;;;;;;4.25;3.40;;;;;;;13.86;89.92;96501.09;5037030;28;20209;-69
2023/04/30 07:30:51;;;;;;;4.30;2.67;;;;;;;14.01;89.19;96504.47;5038478;28;20205;-69
2023/04/30 07:33:17;;;;;;;7.65;3.13;;;;;;;13.79;90.76;96507.34;5037555;28;20201;-69
2023/04/30 07:35:44;;;;;;;3.60;2.25;;;;;;;13.99;91.43;96502.03;5038041;28;20240;-70
2023/04/30 07:38:10;;;;;;;4.07;2.95;;;;;;;13.91;91.37;96495.22;5037282;28;20306;-72
2023/04/30 07:40:37;;;;;;;4.13;2.70;;;;;;;13.76;89.46;96508.56;5037951;28;20225;-69
2023/04/30 07:43:05;;;;;;;5.63;2.60;;;;;;;13.93;89.25;96495.88;5037190;28;20200;-70
2023/04/30 07:45:33;;;;;;;5.50;2.45;;;;;;;13.98;86.83;96510.16;5037781;28;20228;-72
2023/04/30 07:48:00;;;;;;;6.38;2.85;;;;;;;13.90;86.69;96497.06;5036973;28;20201;-72
2023/04/30 07:50:27;;;;;;;4.22;2.55;;;;;;;13.93;83.62;96506.47;5037807;28;20629;-69
2023/04/30 07:52:54;;;;;;;5.22;2.63;;;;;;;14.06;86.44;96512.69;5036996;28;20312;-72
2023/04/30 07:55:20;;;;;;;5.10;3.05;;;;;;;14.02;86.11;96511.41;5037232;28;20316;-72
2023/04/30 07:57:47;;;;;;;6.88;3.85;;;;;;;14.34;89.67;96505.59;5037246;28;20220;-69
2023/04/30 08:00:16;;;;;;;7.15;2.97;;;;;;;14.61;83.71;96507.41;5036952;28;20213;-70
2023/04/30 08:02:44;;;;;;;4.53;2.75;;;;;;;14.46;80.93;96509.34;5037349;28;20680;-71
2023/04/30 08:05:11;;;;;;;4.32;2.35;;;;;;;14.39;84.14;96508.47;5037307;28;20767;-69
2023/04/30 08:07:38;;;;;;;4.20;2.45;;;;;;;14.45;82.51;96511.19;5036938;28;20246;-69
2023/04/30 08:10:06;;;;;;;8.82;2.70;;;;;;;14.44;84.28;96508.72;5036551;28;20581;-69
2023/04/30 08:12:32;;;;;;;3.28;2.00;;;;;;;14.49;86.91;96514.25;5037611;28;20247;-70
2023/04/30 08:15:03;;;;;;;4.38;2.53;;;;;;;14.81;82.93;96509.16;5035551;28;20229;-71
2023/04/30 08:17:31;;;;;;;4.53;2.50;;;;;;;14.56;80.44;96502.69;5036656;28;20201;-72
2023/04/30 08:19:57;;;;;;;7.88;2.38;;;;;;;14.84;83.16;96508.75;5036618;28;20235;-69
2023/04/30 08:22:24;;;;;;;4.05;2.78;;;;;;;14.86;82.01;96502.22;5037464;28;20237;-69
2023/04/30 08:24:50;;;;;;;4.22;2.92;;;;;;;14.94;82.54;96501.25;5035963;28;20221;-68
2023/04/30 08:27:17;;;;;;;11.63;2.50;;;;;;;14.98;80.31;96489.22;5037067;28;20201;-69
2023/04/30 08:29:43;;;;;;;4.07;2.20;;;;;;;14.71;77.93;96490.09;5036667;28;20721;-69
2023/04/30 08:32:10;;;;;;;3.45;2.38;;;;;;;15.06;80.60;96487.22;5036699;28;20776;-69
2023/04/30 08:34:39;;;;;;;6.22;3.13;;;;;;;15.27;80.69;96490.59;5036378;28;20228;-68
2023/04/30 08:37:05;;;;;;;3.22;2.13;;;;;;;15.50;75.38;96496.41;5036744;28;20219;-71
2023/04/30 08:39:32;;;;;;;4.05;2.45;;;;;;;15.58;76.22;96484.75;5035331;28;21285;-70
2023/04/30 08:42:02;;;;;;;3.15;2.20;;;;;;;15.93;72.06;96492.34;5035869;28;20595;-73
2023/04/30 08:44:30;;;;;;;4.22;2.25;;;;;;;15.84;71.04;96486.41;5036638;28;20891;-69
2023/04/30 08:46:57;;;;;;;2.97;2.10;;;;;;;15.86;72.19;96495.00;5036254;28;21061;-68
2023/04/30 08:49:24;;;;;;;4.18;1.98;;;;;;;15.96;77.74;96474.16;5036556;28;20197;-70
2023/04/30 08:51:52;;;;;;;4.35;1.70;;;;;;;15.53;70.59;96490.66;5036057;28;20878;-70
2023/04/30 08:54:19;;;;;;;6.40;2.22;;;;;;;15.52;72.87;96494.34;5035852;28;20220;-70
2023/04/30 08:56:46;;;;;;;2.92;2.15;;;;;;;15.33;71.82;96496.94;5036245;28;20213;-70
2023/04/30 08:59:12;;;;;;;4.43;1.73;;;;;;;15.46;70.64;96489.81;5034949;28;20209;-70
2023/04/30 09:01:39;;;;;;;3.30;1.60;;;;;;;15.34;70.22;96490.63;5036404;28;20371;-70
2023/04/30 09:04:06;;;;;;;2.35;1.55;;;;;;;15.32;69.15;96490.00;5036649;28;20217;-69
2023/04/30 09:06:33;;;;;;;3.63;1.63;;;;;;;15.35;67.74;96486.94;5035589;28;20578;-70
2023/04/30 09:09:09;;;;;;;1.30;1.20;;;;;;;15.48;72.02;96492.31;5035408;28;20591;-69
2023/04/30 09:11:36;;;;;;;1.95;1.55;;;;;;;15.18;70.39;96506.06;5036137;28;20612;-69
2023/04/30 09:14:02;;;;;;;3.05;1.38;;;;;;;15.23;71.73;96498.34;5036030;28;20208;-71
2023/04/30 09:16:44;;;;;;;3.40;1.92;;;;;;;15.36;75.23;96493.88;5036450;28;20201;-69
2023/04/30 09:19:10;;;;;;;2.53;1.63;;;;;;;15.51;72.09;96495.34;5035360;28;20238;-70
2023/04/30 09:21:37;;;;;;;3.38;1.65;;;;;;;15.41;69.94;96486.13;5035201;28;20236;-73
2023/04/30 09:24:06;;;;;;;2.72;1.40;;;;;;;15.59;72.69;96500.50;5036263;28;20205;-71
2023/04/30 09:26:35;;;;;;;1.85;1.33;;;;;;;15.52;72.63;96498.84;5035463;28;20303;-71
2023/04/30 09:29:06;;;;;;;2.47;1.48;;;;;;;15.49;69.53;96496.56;5034993;28;20308;-69
2023/04/30 09:31:33;;;;;;;3.50;1.80;;;;;;;15.84;72.29;96496.25;5035945;28;20211;-72
2023/04/30 09:33:59;;;;;;;2.50;1.60;;;;;;;15.76;68.78;96491.13;5035263;28;20201;-70
2023/04/30 09:36:26;;;;;;;2.60;1.40;;;;;;;15.74;67.58;96498.47;5036254;28;20201;-72
2023/04/30 09:38:53;;;;;;;4.72;2.63;;;;;;;15.70;71.45;96491.13;5034396;28;21391;-71
2023/04/30 09:41:26;;;;;;;6.18;2.28;;;;;;;16.00;72.30;96487.88;5035285;28;20225;-71
2023/04/30 09:43:53;;;;;;;2.85;1.50;;;;;;;15.80;67.43;96491.53;5035400;28;20224;-69
2023/04/30 09:46:20;;;;;;;7.18;1.70;;;;;;;15.59;68.30;96487.22;5036502;28;20208;-72
2023/04/30 09:48:48;;;;;;;2.83;1.75;;;;;;;15.55;71.20;96495.78;5034053;28;20209;-71
2023/04/30 09:51:15;;;;;;;6.38;2.22;;;;;;;15.70;68.42;96493.78;5035770;28;20201;-72
2023/04/30 09:53:42;;;;;;;2.40;1.48;;;;;;;15.87;68.40;96496.66;5030961;28;20211;-74
2023/04/30 09:56:12;;;;;;;4.03;1.65;;;;;;;15.72;68.34;96495.22;5034842;28;20225;-71
2023/04/30 09:58:48;;;;;;;2.65;1.73;;;;;;;16.07;68.06;96494.81;5033280;28;20208;-71
2023/04/30 10:01:15;;;;;;;1.85;1.48;;;;;;;16.02;67.80;96494.59;5035048;28;20220;-72
2023/04/30 10:03:42;;;;;;;3.72;1.95;;;;;;;15.96;69.30;96495.44;5034615;28;20205;-71
2023/04/30 10:06:12;;;;;;;1.35;0.90;;;;;;;15.94;71.20;96489.50;5035507;28;20225;-71
2023/04/30 10:08:41;;;;;;;1.63;1.23;;;;;;;15.92;66.08;96496.88;5034194;28;20205;-71
2023/04/30 10:11:08;;;;;;;3.38;1.77;;;;;;;15.98;70.04;96479.28;5035169;28;20201;-72
2023/04/30 10:13:42;;;;;;;2.00;1.80;;;;;;;16.15;65.71;96491.97;5034331;28;20225;-70
2023/04/30 10:16:17;;;;;;;2.45;1.38;;;;;;;16.02;64.72;96491.94;5036167;28;20221;-70
2023/04/30 10:18:46;;;;;;;2.15;1.25;;;;;;;15.87;66.38;96486.03;5034022;28;20201;-69
2023/04/30 10:21:15;;;;;;;2.22;1.30;;;;;;;15.65;68.29;96488.25;5033897;28;20225;-71
2023/04/30 10:23:42;;;;;;;2.75;1.60;;;;;;;15.94;68.95;96478.06;5032937;28;20209;-74
2023/04/30 10:26:11;;;;;;;4.38;1.65;;;;;;;16.27;67.85;96473.59;5036070;28;20225;-69
2023/04/30 10:28:37;;;;;;;2.25;1.77;;;;;;;16.24;68.58;96476.59;5034107;28;20205;-70
2023/04/30 10:31:07;;;;;;;1.92;1.25;;;;;;;16.64;65.73;96479.03;5034950;28;20419;-72
2023/04/30 10:33:48;;;;;;;2.42;1.65;;;;;;;16.45;64.97;96471.91;5035283;28;20240;-71
2023/04/30 10:36:21;;;;;;;2.55;1.30;;;;;;;16.17;66.03;96470.50;5034546;28;20266;-70
2023/04/30 10:38:48;;;;;;;1.25;0.98;;;;;;;16.27;68.78;96469.06;5034154;28;20221;-71
2023/04/30 10:41:15;;;;;;;1.38;1.10;;;;;;;16.22;65.80;96471.50;5034868;28;20632;-71
2023/04/30 10:43:42;;;;;;;1.35;1.17;;;;;;;16.46;64.43;96467.41;5035105;28;20259;-70
2023/04/30 10:46:09;;;;;;;1.35;0.95;;;;;;;16.31;62.61;96464.97;5034464;28;20909;-73
2023/04/30 10:48:36;;;;;;;2.88;1.67;;;;;;;16.41;63.00;96473.34;5034590;28;20209;-69
2023/04/30 10:51:03;;;;;;;1.77;1.33;;;;;;;16.63;64.33;96467.56;5036127;28;20202;-72
2023/04/30 10:53:31;;;;;;;1.02;0.95;;;;;;;16.69;66.33;96464.09;5038627;28;20201;-69
2023/04/30 10:56:00;;;;;;;1.60;1.02;;;;;;;16.55;64.52;96453.69;5037903;28;20220;-73
2023/04/30 10:58:30;;;;;;;2.55;1.65;;;;;;;16.55;67.72;96461.66;5038841;28;20798;-73
2023/04/30 11:01:01;;;;;;;2.15;1.50;;;;;;;16.66;65.92;96459.19;5037524;28;20726;-72
2023/04/30 11:03:31;;;;;;;2.38;1.15;;;;;;;16.41;66.14;96470.69;5038581;28;20205;-69
2023/04/30 11:06:02;;;;;;;2.17;1.30;;;;;;;16.51;65.58;96471.09;5037488;28;20227;-69
2023/04/30 11:08:35;;;;;;;0.98;0.82;;;;;;;16.69;65.69;96469.41;5037958;28;20731;-73
2023/04/30 11:11:03;;;;;;;1.33;1.15;;;;;;;16.56;63.29;96471.28;5037623;28;20256;-73
2023/04/30 11:13:39;;;;;;;1.58;1.10;;;;;;;16.80;63.71;96467.94;5038990;28;20236;-70
2023/04/30 11:16:05;;;;;;;2.17;1.40;;;;;;;16.76;67.15;96464.91;5037289;28;20228;-71
2023/04/30 11:18:33;;;;;;;2.38;1.42;;;;;;;17.10;64.39;96462.69;5038472;28;20201;-73
2023/04/30 11:21:01;;;;;;;1.73;0.95;;;;;;;17.07;66.08;96464.16;5038449;28;20202;-69
2023/04/30 11:23:28;;;;;;;2.10;1.20;;;;;;;16.85;64.23;96454.81;5038690;28;20216;-73
2023/04/30 11:25:56;;;;;;;1.70;1.33;;;;;;;16.83;64.75;96454.22;5037076;28;20565;-72
2023/04/30 11:28:25;;;;;;;2.75;1.80;;;;;;;16.81;64.53;96462.41;5038304;28;20613;-70
2023/04/30 11:30:53;;;;;;;1.77;1.30;;;;;;;16.97;60.69;96447.81;5037612;28;20209;-69
2023/04/30 11:33:20;;;;;;;0.85;0.85;;;;;;;16.99;61.69;96453.75;5038182;28;20205;-71